Time;durP1;ratioP1;P1;durP2;ratioP2;P2;SDS_P1;SDS_P2;PMS_P1;PMS_P2;Temp;Humidity;BMP_temperature;BMP_pressure;BME280_temperature;BME280_humidity;BME280_pressure;Samples;Min_cycle;Max_cycle;Signal;HPM_P1;HPM_P2
2023/10/14 00:01:34;;;;;;;17.55;9.15;;;;;;;9.11;84.58;100613.46;1712233;84;21578;-69
2023/10/14 00:04:11;;;;;;;18.20;9.15;;;;;;;9.10;84.47;100622.17;1712125;82;21484;-69
2023/10/14 00:06:41;;;;;;;16.73;8.43;;;;;;;9.11;84.32;100616.20;1712257;84;21071;-67
2023/10/14 00:09:15;;;;;;;18.30;8.93;;;;;;;9.08;84.17;100615.16;1712185;84;21051;-69
2023/10/14 00:11:50;;;;;;;16.45;8.90;;;;;;;9.06;84.17;100615.86;1712250;84;21038;-69
2023/10/14 00:14:19;;;;;;;20.05;9.48;;;;;;;9.03;84.17;100616.22;1712175;82;21079;-68
2023/10/14 00:16:51;;;;;;;20.00;9.28;;;;;;;9.02;84.30;100622.20;1712060;83;21509;-68
2023/10/14 00:19:22;;;;;;;16.48;8.78;;;;;;;9.04;84.39;100626.98;1712163;83;21514;-69
2023/10/14 00:21:51;;;;;;;19.25;9.08;;;;;;;9.04;84.32;100627.49;1712076;82;21494;-68
2023/10/14 00:24:29;;;;;;;15.35;8.38;;;;;;;9.02;84.35;100629.55;1718451;82;21086;-69
2023/10/14 00:26:51;;;;;;;17.10;8.58;;;;;;;8.99;84.41;100625.82;1710698;84;21035;-67
2023/10/14 00:29:20;;;;;;;15.55;8.53;;;;;;;8.98;84.48;100622.23;1712219;83;21526;-68
2023/10/14 00:31:51;;;;;;;15.48;8.20;;;;;;;8.97;84.58;100619.17;1712264;82;21087;-71
2023/10/14 00:34:22;;;;;;;12.63;7.42;;;;;;;8.95;84.54;100617.14;1712196;83;21095;-67
2023/10/14 00:36:52;;;;;;;14.20;8.00;;;;;;;8.91;84.61;100622.63;1712486;84;21066;-69
2023/10/14 00:39:26;;;;;;;16.45;7.87;;;;;;;8.89;84.82;100619.23;1712274;84;21493;-69
2023/10/14 00:41:56;;;;;;;19.02;8.83;;;;;;;8.89;84.93;100619.23;1712244;84;21067;-68
2023/10/14 00:44:24;;;;;;;15.60;8.50;;;;;;;8.91;85.03;100610.33;1712273;84;21483;-69
2023/10/14 00:46:54;;;;;;;17.60;7.90;;;;;;;8.92;85.09;100605.20;1712475;84;21054;-69
2023/10/14 00:49:31;;;;;;;16.70;8.05;;;;;;;8.96;85.11;100605.17;1712499;84;21110;-69
2023/10/14 00:51:59;;;;;;;13.78;7.87;;;;;;;8.98;85.14;100599.52;1712412;83;21071;-69
2023/10/14 00:57:20;;;;;;;15.53;7.53;;;;;;;8.97;84.92;100593.72;1712313;84;21055;-69
2023/10/14 00:59:37;;;;;;;16.62;8.08;;;;;;;8.96;85.06;100588.78;1711162;83;21039;-68
2023/10/14 01:02:09;;;;;;;13.25;7.28;;;;;;;8.97;85.10;100587.74;1712260;84;21074;-68
2023/10/14 01:04:40;;;;;;;13.58;7.45;;;;;;;8.98;85.10;100585.34;1712347;84;21135;-69
2023/10/14 01:07:15;;;;;;;13.53;7.85;;;;;;;8.99;85.05;100575.27;1712327;84;21490;-68
2023/10/14 01:12:20;;;;;;;17.85;7.80;;;;;;;8.99;85.09;100565.18;1712405;84;21079;-68
2023/10/14 01:14:52;;;;;;;13.72;7.10;;;;;;;8.99;85.06;100567.06;1712284;84;21584;-68
2023/10/14 01:17:29;;;;;;;16.80;7.75;;;;;;;8.96;84.80;100555.98;1712420;83;21087;-68
2023/10/14 01:22:43;;;;;;;15.78;8.45;;;;;;;8.91;84.84;100547.48;1712446;84;21490;-68
2023/10/14 01:25:16;;;;;;;16.20;8.50;;;;;;;8.90;84.93;100530.76;1722733;83;21054;-69
2023/10/14 01:27:43;;;;;;;16.95;8.90;;;;;;;8.89;85.03;100527.17;1722963;83;21058;-69
2023/10/14 01:30:21;;;;;;;16.77;8.70;;;;;;;8.89;85.09;100533.16;1714365;83;21536;-68
2023/10/14 01:32:51;;;;;;;17.62;9.10;;;;;;;8.87;85.06;100536.07;1712260;84;21568;-68
2023/10/14 01:35:31;;;;;;;17.15;8.60;;;;;;;8.87;84.95;100536.59;1712218;83;21519;-68
2023/10/14 01:37:59;;;;;;;14.98;6.42;;;;;;;8.87;84.99;100533.86;1712560;83;21063;-67
2023/10/14 01:40:36;;;;;;;14.07;8.60;;;;;;;8.86;84.93;100530.79;1712307;84;21531;-68
2023/10/14 01:43:08;;;;;;;15.28;8.65;;;;;;;8.81;84.82;100534.59;1712392;83;21075;-68
2023/10/14 01:45:50;;;;;;;19.30;8.48;;;;;;;8.79;84.84;100534.77;1712398;84;21098;-67
2023/10/14 01:48:22;;;;;;;17.62;8.18;;;;;;;8.78;84.91;100535.80;1712322;84;21116;-67
2023/10/14 01:50:54;;;;;;;16.15;7.92;;;;;;;8.77;85.00;100534.11;1712285;84;21046;-68
2023/10/14 01:53:28;;;;;;;15.95;8.58;;;;;;;8.77;84.99;100544.19;1712238;84;21050;-68
2023/10/14 01:55:58;;;;;;;15.75;8.00;;;;;;;8.77;85.05;100535.98;1712260;84;21058;-67
2023/10/14 01:58:29;;;;;;;13.45;8.33;;;;;;;8.77;85.20;100530.01;1712236;84;21114;-69
2023/10/14 02:03:41;;;;;;;15.30;7.62;;;;;;;8.82;85.32;100534.92;1712248;84;21090;-68
2023/10/14 02:06:11;;;;;;;16.77;8.08;;;;;;;8.84;85.35;100530.12;1712385;83;21082;-68
2023/10/14 02:08:37;;;;;;;15.90;8.40;;;;;;;8.83;85.25;100532.52;1712372;82;21039;-68
2023/10/14 02:11:05;;;;;;;15.58;8.25;;;;;;;8.84;85.34;100528.76;1712453;84;21079;-67
2023/10/14 02:13:36;;;;;;;12.93;7.12;;;;;;;8.86;85.31;100532.16;1712303;84;21063;-69
2023/10/14 02:16:08;;;;;;;15.48;7.62;;;;;;;8.84;85.21;100535.08;1712434;84;21011;-68
2023/10/14 02:18:37;;;;;;;15.83;7.92;;;;;;;8.85;85.29;100541.39;1712319;82;21070;-67
2023/10/14 02:21:16;;;;;;;14.03;7.20;;;;;;;8.83;85.29;100532.52;1712467;84;21050;-67
2023/10/14 02:23:44;;;;;;;13.22;6.42;;;;;;;8.82;85.41;100531.67;1712226;83;21477;-69
2023/10/14 02:26:24;;;;;;;11.60;6.83;;;;;;;8.83;85.51;100528.42;1712386;84;21098;-69
2023/10/14 02:28:54;;;;;;;13.95;6.87;;;;;;;8.83;85.61;100524.33;1712246;84;21515;-70
2023/10/14 02:33:59;;;;;;;12.33;6.50;;;;;;;8.83;85.81;100537.98;1712423;84;21023;-68
2023/10/14 02:36:29;;;;;;;13.32;6.10;;;;;;;8.83;85.85;100528.42;1712447;84;21102;-68
2023/10/14 02:38:57;;;;;;;11.05;6.35;;;;;;;8.83;85.94;100525.70;1712443;84;21046;-68
2023/10/14 02:41:32;;;;;;;12.60;6.28;;;;;;;8.81;86.02;100519.05;1712194;84;21011;-68
2023/10/14 02:46:42;;;;;;;10.32;5.97;;;;;;;8.85;86.26;100521.74;1712401;84;21035;-67
2023/10/14 02:49:15;;;;;;;12.95;6.53;;;;;;;8.87;86.29;100512.00;1712339;84;21575;-68
2023/10/14 02:51:45;;;;;;;12.90;6.03;;;;;;;8.88;86.28;100509.08;1712296;84;21047;-68
2023/10/14 02:54:27;;;;;;;10.38;5.47;;;;;;;8.90;86.30;100502.91;1712186;84;21055;-68
2023/10/14 02:57:07;;;;;;;9.83;5.37;;;;;;;8.91;86.24;100502.39;1712296;83;21063;-68
2023/10/14 02:59:43;;;;;;;11.35;5.17;;;;;;;8.89;86.27;100501.22;1712658;83;21114;-68
2023/10/14 03:02:14;;;;;;;11.57;5.12;;;;;;;8.88;86.37;100495.42;1712773;83;21047;-69
2023/10/14 03:04:57;;;;;;;10.60;5.55;;;;;;;8.89;86.51;100490.80;1712486;84;21055;-69
2023/10/14 03:07:31;;;;;;;11.22;5.00;;;;;;;8.92;86.65;100489.06;1712363;84;21043;-69
2023/10/14 03:10:12;;;;;;;11.22;5.40;;;;;;;8.91;86.72;100486.00;1712256;84;21046;-69
2023/10/14 03:12:49;;;;;;;12.07;5.17;;;;;;;8.90;86.77;100481.57;1712164;84;21459;-70
2023/10/14 03:15:20;;;;;;;11.40;5.42;;;;;;;8.91;86.96;100466.88;1712387;84;21055;-69
2023/10/14 03:18:01;;;;;;;10.38;4.78;;;;;;;8.96;87.09;100464.44;1712297;84;21070;-68
2023/10/14 03:23:11;;;;;;;12.50;5.10;;;;;;;9.01;87.09;100453.80;1712164;84;21112;-68
2023/10/14 03:25:40;;;;;;;9.43;4.92;;;;;;;9.04;87.25;100447.11;1712172;83;21078;-68
2023/10/14 03:28:13;;;;;;;10.10;5.20;;;;;;;9.09;87.22;100441.93;1712231;84;21470;-68
2023/10/14 03:30:47;;;;;;;9.55;5.20;;;;;;;9.14;87.17;100443.09;1712208;83;21090;-68
2023/10/14 03:33:20;;;;;;;;;;;;;;;9.19;87.12;100446.11;1714708;84;21591;-67
2023/10/14 03:36:03;;;;;;;11.63;5.17;;;;;;;9.26;87.06;100445.36;1712299;84;20183;-69
2023/10/14 03:41:16;;;;;;;10.23;5.17;;;;;;;9.34;86.85;100451.59;1712342;84;21062;-68
2023/10/14 03:46:13;;;;;;;10.82;5.28;;;;;;;9.39;86.74;100454.60;1712288;84;21011;-68
2023/10/14 03:48:48;;;;;;;9.95;5.05;;;;;;;9.42;86.68;100454.75;1712364;84;21059;-69
2023/10/14 03:51:25;;;;;;;9.03;5.05;;;;;;;9.44;86.56;100450.78;1712185;82;21063;-69
2023/10/14 03:53:55;;;;;;;11.33;5.17;;;;;;;9.47;86.45;100448.19;1712307;84;21316;-67
2023/10/14 03:56:26;;;;;;;9.28;4.80;;;;;;;9.50;86.40;100454.13;1712155;84;21470;-69
2023/10/14 03:58:55;;;;;;;8.85;4.90;;;;;;;9.52;86.39;100452.57;1712383;82;21518;-70
2023/10/14 04:01:34;;;;;;;10.63;5.15;;;;;;;9.54;86.36;100458.18;1712344;84;21011;-67
2023/10/14 04:04:03;;;;;;;8.20;4.60;;;;;;;9.58;86.15;100448.23;1712287;83;21055;-69
2023/10/14 04:06:35;;;;;;;7.60;4.35;;;;;;;9.65;86.11;100451.38;1712455;82;21038;-68
2023/10/14 04:09:10;;;;;;;8.53;4.58;;;;;;;9.68;85.98;100446.89;1712360;84;21094;-68
2023/10/14 04:11:38;;;;;;;9.08;4.28;;;;;;;9.76;85.82;100444.60;1712795;83;21063;-69
2023/10/14 04:14:14;;;;;;;7.37;4.53;;;;;;;9.81;85.46;100444.36;1712500;84;21102;-69
2023/10/14 04:19:44;;;;;;;11.48;4.50;;;;;;;9.93;85.02;100443.86;1712537;84;21066;-70
2023/10/14 04:21:59;;;;;;;7.83;4.37;;;;;;;9.99;84.62;100431.62;1712778;83;21102;-69
2023/10/14 04:29:58;;;;;;;6.62;4.25;;;;;;;10.22;83.17;100439.69;1712361;84;21045;-68
2023/10/14 04:32:41;;;;;;;10.32;4.67;;;;;;;10.28;82.61;100433.44;1712605;83;21074;-67
2023/10/14 04:35:04;;;;;;;6.90;4.40;;;;;;;10.34;82.24;100429.91;1712932;83;21066;-68
2023/10/14 04:37:50;;;;;;;7.85;4.22;;;;;;;10.38;82.00;100433.95;1712416;84;21051;-69
2023/10/14 04:40:15;;;;;;;8.50;4.95;;;;;;;10.42;81.63;100442.66;1712737;82;21054;-69
2023/10/14 04:42:43;;;;;;;8.90;4.87;;;;;;;10.45;81.42;100425.31;1712673;82;21071;-64
2023/10/14 04:45:13;;;;;;;7.78;5.08;;;;;;;10.47;81.29;100421.01;1712535;82;21050;-68
2023/10/14 04:47:47;;;;;;;9.83;4.92;;;;;;;10.50;81.09;100421.14;1712389;82;21051;-69
2023/10/14 04:50:14;;;;;;;8.15;4.67;;;;;;;10.54;80.90;100419.17;1712300;83;21035;-68
2023/10/14 04:52:48;;;;;;;8.40;4.92;;;;;;;10.58;80.77;100419.63;1712224;84;21582;-68
2023/10/14 05:00:42;;;;;;;;;;;;;;;10.59;80.72;100413.10;1714972;84;21151;-68
2023/10/14 05:03:22;;;;;;;10.30;5.78;;;;;;;10.62;81.11;100421.77;1712257;84;20231;-67
2023/10/14 05:05:50;;;;;;;10.55;5.97;;;;;;;10.66;81.39;100411.27;1712285;83;21471;-69
2023/10/14 05:08:23;;;;;;;8.93;5.75;;;;;;;10.73;81.56;100406.16;1712196;84;21075;-69
2023/10/14 05:10:53;;;;;;;11.95;5.30;;;;;;;10.80;81.74;100414.44;1712299;84;21034;-68
2023/10/14 05:13:31;;;;;;;10.20;5.78;;;;;;;10.86;81.90;100413.64;1712147;83;21455;-69
2023/10/14 05:16:04;;;;;;;13.00;5.53;;;;;;;10.91;82.00;100405.66;1712410;83;21451;-69
2023/10/14 05:18:30;;;;;;;12.15;5.70;;;;;;;10.98;82.08;100413.94;1712504;83;21078;-67
2023/10/14 05:21:20;;;;;;;10.32;6.12;;;;;;;10.99;82.09;100400.03;1712329;83;21510;-69
2023/10/14 05:23:42;;;;;;;11.45;5.75;;;;;;;11.03;82.35;100410.92;1712412;83;21357;-69
2023/10/14 05:26:14;;;;;;;12.07;6.00;;;;;;;11.09;82.68;100417.53;1721050;83;21149;-69
2023/10/14 05:28:42;;;;;;;8.38;5.47;;;;;;;11.14;83.08;100410.06;1723039;83;21051;-69
2023/10/14 05:31:13;;;;;;;8.90;5.37;;;;;;;11.21;83.59;100404.10;1723152;83;21069;-70
2023/10/14 05:33:42;;;;;;;10.98;5.70;;;;;;;11.29;83.76;100388.33;1723116;83;21038;-69
2023/10/14 05:36:11;;;;;;;8.73;5.80;;;;;;;11.34;83.82;100381.70;1723133;83;21054;-68
2023/10/14 05:38:41;;;;;;;11.75;5.70;;;;;;;11.40;83.94;100376.78;1723220;83;21466;-71
2023/10/14 05:41:10;;;;;;;14.33;6.20;;;;;;;11.48;84.09;100366.16;1723330;83;21066;-70
2023/10/14 05:43:38;;;;;;;8.98;5.80;;;;;;;11.53;84.14;100367.76;1714670;83;21082;-70
2023/10/14 05:46:12;;;;;;;8.10;5.42;;;;;;;11.59;84.16;100371.58;1712520;82;21046;-70
2023/10/14 05:48:41;;;;;;;11.83;6.28;;;;;;;11.63;84.09;100364.10;1712216;84;21067;-70
2023/10/14 05:51:09;;;;;;;11.45;6.62;;;;;;;11.68;84.04;100359.37;1712352;84;21540;-70
2023/10/14 05:53:38;;;;;;;14.70;6.42;;;;;;;11.73;84.14;100370.08;1712239;84;21486;-70
2023/10/14 05:56:11;;;;;;;12.98;6.55;;;;;;;11.78;84.14;100368.65;1712301;84;21520;-68
2023/10/14 05:58:41;;;;;;;14.65;6.67;;;;;;;11.82;84.15;100372.14;1712350;84;21517;-70
2023/10/14 06:01:13;;;;;;;10.95;6.50;;;;;;;11.87;84.22;100371.52;1712169;84;21067;-71
2023/10/14 06:03:41;;;;;;;11.38;6.85;;;;;;;11.93;84.15;100377.56;1712377;84;21086;-71
2023/10/14 06:06:14;;;;;;;10.88;6.35;;;;;;;11.96;84.09;100379.36;1712303;84;21525;-68
2023/10/14 06:08:50;;;;;;;13.18;6.25;;;;;;;12.01;83.99;100378.74;1712428;82;21974;-70
2023/10/14 06:11:16;;;;;;;11.90;6.22;;;;;;;12.06;83.96;100389.95;1712049;84;21039;-67
2023/10/14 06:13:45;;;;;;;9.43;5.72;;;;;;;12.11;83.98;100384.68;1712018;84;21486;-69
2023/10/14 06:16:14;;;;;;;11.70;6.58;;;;;;;12.17;83.96;100388.49;1712318;84;21034;-68
2023/10/14 06:18:47;;;;;;;10.82;6.22;;;;;;;12.21;83.98;100379.63;1712285;83;21090;-70
2023/10/14 06:21:15;;;;;;;11.55;6.22;;;;;;;12.27;83.98;100381.54;1712496;84;21063;-70
2023/10/14 06:23:47;;;;;;;8.78;5.67;;;;;;;12.33;84.02;100382.08;1712220;84;21544;-70
2023/10/14 06:26:17;;;;;;;10.30;6.05;;;;;;;12.41;83.97;100387.08;1715087;82;21058;-69
2023/10/14 06:28:48;;;;;;;10.82;6.20;;;;;;;12.47;83.86;100383.48;1714981;83;21572;-68
2023/10/14 06:31:19;;;;;;;9.53;6.10;;;;;;;12.54;83.76;100382.97;1712307;84;21054;-70
2023/10/14 06:33:48;;;;;;;11.73;5.95;;;;;;;12.61;83.72;100372.81;1712534;84;21066;-69
2023/10/14 06:36:18;;;;;;;10.03;6.08;;;;;;;12.71;83.70;100369.11;1712311;84;21051;-71
2023/10/14 06:38:47;;;;;;;12.68;6.35;;;;;;;12.82;83.56;100373.96;1712144;84;21518;-70
2023/10/14 06:41:18;;;;;;;13.30;6.80;;;;;;;12.92;83.37;100373.53;1712216;82;21085;-70
2023/10/14 06:43:55;;;;;;;8.90;5.85;;;;;;;13.03;83.28;100371.53;1712385;84;21047;-68
2023/10/14 06:46:20;;;;;;;12.15;6.85;;;;;;;13.15;83.21;100368.97;1712376;83;21156;-69
2023/10/14 06:48:52;;;;;;;14.87;8.65;;;;;;;13.27;83.22;100367.27;1712328;84;21054;-69
2023/10/14 06:51:19;;;;;;;12.33;6.40;;;;;;;13.37;83.11;100367.66;1712423;84;21074;-68
2023/10/14 06:53:51;;;;;;;8.75;5.92;;;;;;;13.46;83.20;100373.77;1712170;84;21526;-70
2023/10/14 06:56:20;;;;;;;8.35;5.60;;;;;;;13.56;83.51;100381.88;1712372;84;21063;-69
2023/10/14 06:58:51;;;;;;;10.70;6.20;;;;;;;13.64;83.75;100376.13;1712474;84;21074;-68
2023/10/14 07:01:21;;;;;;;8.58;5.50;;;;;;;13.70;83.68;100366.72;1712388;84;21090;-69
2023/10/14 07:03:52;;;;;;;18.05;6.65;;;;;;;13.74;83.79;100366.59;1712173;82;21098;-69
2023/10/14 07:06:21;;;;;;;8.80;5.80;;;;;;;13.80;83.87;100367.94;1712163;84;21070;-69
2023/10/14 07:08:50;;;;;;;9.48;5.87;;;;;;;13.84;83.94;100373.84;1712276;84;21088;-68
2023/10/14 07:11:19;;;;;;;9.80;5.87;;;;;;;13.90;83.99;100369.68;1712311;82;21098;-71
2023/10/14 07:13:48;;;;;;;11.38;5.97;;;;;;;13.94;84.00;100364.58;1712251;83;21467;-69
2023/10/14 07:16:18;;;;;;;13.22;6.53;;;;;;;14.00;84.00;100359.56;1712159;84;21050;-69
2023/10/14 07:18:47;;;;;;;9.75;6.08;;;;;;;14.05;83.95;100353.39;1712353;84;21059;-69
2023/10/14 07:21:19;;;;;;;10.90;6.03;;;;;;;14.09;84.21;100349.97;1712311;83;21105;-68
2023/10/14 07:23:47;;;;;;;10.35;5.75;;;;;;;14.19;84.21;100350.86;1712360;82;21050;-68
2023/10/14 07:26:16;;;;;;;11.10;6.08;;;;;;;14.24;84.09;100347.73;1712305;82;21069;-69
2023/10/14 07:28:51;;;;;;;9.53;5.90;;;;;;;14.33;84.12;100347.50;1712280;84;21043;-70
2023/10/14 07:31:23;;;;;;;9.10;6.03;;;;;;;14.40;84.03;100346.91;1712186;83;21090;-69
2023/10/14 07:33:51;;;;;;;9.23;5.80;;;;;;;14.46;84.04;100337.24;1712155;83;21476;-71
2023/10/14 07:36:20;;;;;;;10.00;5.90;;;;;;;14.55;83.95;100335.05;1712172;84;21062;-70
2023/10/14 07:38:49;;;;;;;9.80;5.97;;;;;;;14.63;83.88;100336.14;1712289;84;21043;-69
2023/10/14 07:41:19;;;;;;;11.48;5.75;;;;;;;14.79;84.08;100334.19;1712298;84;21034;-69
2023/10/14 07:43:47;;;;;;;11.05;6.40;;;;;;;15.13;84.22;100328.66;1712374;84;21122;-69
2023/10/14 07:46:17;;;;;;;10.05;6.50;;;;;;;15.61;83.84;100326.55;1692622;84;21066;-68
2023/10/14 07:48:47;;;;;;;8.38;5.45;;;;;;;16.15;79.98;100331.63;1712223;82;21055;-70
2023/10/14 07:51:16;;;;;;;10.15;6.08;;;;;;;16.66;77.68;100321.38;1712198;84;21462;-68
2023/10/14 07:53:46;;;;;;;11.63;5.67;;;;;;;17.09;75.45;100329.34;1710481;82;21521;-68
2023/10/14 07:56:15;;;;;;;11.80;5.58;;;;;;;17.52;74.24;100325.28;1712275;84;21043;-69
2023/10/14 07:58:44;;;;;;;12.00;5.90;;;;;;;17.97;73.02;100321.80;1710476;84;21490;-71
2023/10/14 08:01:16;;;;;;;9.58;6.17;;;;;;;18.35;70.57;100328.92;1714343;83;21009;-71
2023/10/14 08:03:45;;;;;;;10.23;5.50;;;;;;;18.76;69.73;100316.30;1714920;83;21009;-72
2023/10/14 08:06:17;;;;;;;9.20;6.22;;;;;;;19.16;67.74;100316.09;1724624;82;21024;-73
2023/10/14 08:25:03;;;;;;;15.25;9.68;;;;;;;20.08;60.94;100301.42;1705719;80;21176;-66
2023/10/14 08:27:33;;;;;;;10.93;6.87;;;;;;;19.95;61.27;100293.78;1706714;82;21059;-64
2023/10/14 08:30:10;;;;;;;11.63;7.35;;;;;;;19.89;61.82;100296.22;1702057;83;21100;-63
2023/10/14 08:32:40;;;;;;;10.88;6.97;;;;;;;19.83;61.72;100290.31;1699124;84;21073;-62
2023/10/14 08:35:17;;;;;;;13.95;7.53;;;;;;;19.71;61.87;100292.95;1702446;84;21119;-64
2023/10/14 08:37:51;;;;;;;15.10;7.28;;;;;;;19.59;62.42;100284.21;1700397;84;21459;-64
2023/10/14 08:40:21;;;;;;;11.35;7.10;;;;;;;19.49;62.68;100281.80;1698336;84;21076;-63
2023/10/14 08:42:53;;;;;;;14.13;7.92;;;;;;;19.41;63.08;100274.76;1698508;84;21428;-63
2023/10/14 08:45:25;;;;;;;12.37;6.92;;;;;;;19.33;63.48;100276.59;1698680;84;21451;-64
2023/10/14 08:47:54;;;;;;;11.73;7.35;;;;;;;19.27;63.84;100272.91;1701558;84;21062;-63
2023/10/14 08:50:24;;;;;;;13.22;7.45;;;;;;;19.22;63.98;100272.02;1701595;84;21079;-62
2023/10/14 08:52:54;;;;;;;12.35;7.22;;;;;;;19.17;64.16;100277.50;1701641;84;21088;-63
2023/10/14 08:55:23;;;;;;;13.28;7.95;;;;;;;19.09;64.36;100262.12;1701450;84;21060;-63
2023/10/14 08:57:52;;;;;;;15.18;8.10;;;;;;;19.01;64.69;100266.73;1701293;84;21036;-65
2023/10/14 09:00:23;;;;;;;15.35;7.60;;;;;;;18.93;64.88;100258.84;1701406;84;21048;-64
2023/10/14 09:02:53;;;;;;;13.48;7.97;;;;;;;18.86;65.16;100255.41;1700628;84;21057;-64
2023/10/14 09:05:24;;;;;;;15.40;7.28;;;;;;;18.79;65.46;100263.89;1679105;84;21048;-64
2023/10/14 09:07:55;;;;;;;14.23;7.70;;;;;;;18.74;65.74;100256.88;1698555;84;21008;-64
2023/10/14 09:10:24;;;;;;;12.65;7.05;;;;;;;18.74;66.10;100243.55;1698543;84;21103;-62
2023/10/14 09:12:57;;;;;;;12.95;7.33;;;;;;;18.77;66.40;100249.42;1698625;84;21040;-64
2023/10/14 09:15:29;;;;;;;11.68;7.00;;;;;;;18.80;66.22;100232.80;1698409;84;21064;-64
2023/10/14 09:17:59;;;;;;;13.38;7.65;;;;;;;18.81;66.34;100235.88;1698624;84;21091;-64
2023/10/14 09:20:37;;;;;;;10.88;6.62;;;;;;;18.84;66.33;100227.03;1698663;84;21036;-64
2023/10/14 09:23:39;;;;;;;12.95;7.22;;;;;;;18.86;66.26;100228.48;1698621;84;21099;-63
2023/10/14 09:26:05;;;;;;;18.00;7.62;;;;;;;18.90;66.13;100229.66;1698309;83;21102;-63
2023/10/14 09:28:36;;;;;;;10.25;6.33;;;;;;;18.91;65.92;100221.61;1698641;84;21048;-62
2023/10/14 09:31:07;;;;;;;12.70;6.97;;;;;;;18.94;65.66;100213.32;1698638;84;21040;-64
2023/10/14 09:33:42;;;;;;;10.05;6.47;;;;;;;18.96;65.49;100206.96;1698531;84;21450;-65
2023/10/14 09:36:18;;;;;;;14.20;6.47;;;;;;;18.96;65.54;100208.35;1698484;84;21051;-63
2023/10/14 09:38:49;;;;;;;14.28;6.40;;;;;;;18.96;65.27;100201.41;1679564;85;21144;-63
2023/10/14 09:41:19;;;;;;;9.45;5.72;;;;;;;18.94;65.37;100196.11;1679547;85;21039;-63
2023/10/14 09:43:48;;;;;;;12.13;6.47;;;;;;;18.95;65.38;100190.02;1679208;85;21105;-64
2023/10/14 09:46:17;;;;;;;12.03;6.55;;;;;;;18.94;65.26;100185.00;1679370;85;21538;-63
2023/10/14 09:48:47;;;;;;;14.73;6.60;;;;;;;18.93;65.13;100192.20;1679397;85;21483;-64
2023/10/14 09:51:16;;;;;;;10.03;6.62;;;;;;;18.94;65.16;100187.78;1658456;85;21107;-62
2023/10/14 09:53:48;;;;;;;12.03;6.25;;;;;;;18.99;65.01;100180.06;1679237;85;21530;-63
2023/10/14 09:56:16;;;;;;;12.80;6.20;;;;;;;19.07;64.77;100176.00;1678514;85;21106;-63
2023/10/14 09:58:47;;;;;;;12.15;6.15;;;;;;;19.15;64.60;100164.43;1677711;85;21578;-63
2023/10/14 10:01:17;;;;;;;12.88;6.65;;;;;;;19.25;64.30;100167.33;1678991;85;21071;-66
2023/10/14 10:04:00;;;;;;;10.72;5.92;;;;;;;19.31;63.90;100163.50;1679055;84;21171;-64
2023/10/14 10:06:50;;;;;;;10.72;6.22;;;;;;;19.35;63.91;100163.27;1678870;84;21087;-63
2023/10/14 10:09:42;;;;;;;12.28;6.80;;;;;;;19.40;63.74;100157.77;1679651;85;21482;-64
2023/10/14 10:12:11;;;;;;;11.88;6.10;;;;;;;19.44;63.72;100156.69;1679305;85;21043;-64
2023/10/14 10:14:42;;;;;;;14.07;6.65;;;;;;;19.48;63.56;100144.78;1679353;85;21524;-64
2023/10/14 10:17:12;;;;;;;12.03;6.62;;;;;;;19.56;63.28;100149.09;1679385;85;21076;-61
2023/10/14 10:20:10;;;;;;;12.60;6.00;;;;;;;19.65;62.92;100135.01;1679303;85;21039;-70
2023/10/14 10:22:50;;;;;;;12.37;6.37;;;;;;;19.68;62.77;100129.47;1672780;85;21047;-65
2023/10/14 10:25:26;;;;;;;11.85;5.67;;;;;;;19.73;62.65;100121.17;1660871;85;21548;-63
2023/10/14 10:27:55;;;;;;;9.38;6.05;;;;;;;19.78;62.60;100126.23;1675505;85;21462;-63
2023/10/14 10:30:28;;;;;;;9.95;5.92;;;;;;;19.84;62.65;100127.95;1655018;85;21135;-62
2023/10/14 10:33:01;;;;;;;12.33;6.35;;;;;;;19.94;62.14;100121.63;1632183;86;21564;-62
2023/10/14 10:35:30;;;;;;;11.83;6.15;;;;;;;20.02;61.93;100124.47;1674549;84;21078;-64
2023/10/14 10:37:59;;;;;;;12.65;6.33;;;;;;;20.10;61.47;100114.23;1694212;84;21039;-64
2023/10/14 10:40:29;;;;;;;8.55;5.70;;;;;;;20.17;60.96;100119.05;1635313;84;21031;-65
2023/10/14 10:43:07;;;;;;;13.18;6.78;;;;;;;20.22;60.42;100108.78;1703540;84;21059;-63
2023/10/14 10:45:36;;;;;;;10.55;6.50;;;;;;;20.27;60.06;100110.77;1703614;84;21051;-63
2023/10/14 10:48:06;;;;;;;10.85;6.08;;;;;;;20.28;60.21;100103.25;1703397;84;21079;-65
2023/10/14 10:50:40;;;;;;;12.70;5.78;;;;;;;20.28;60.36;100099.08;1703428;84;21130;-63
2023/10/14 10:53:14;;;;;;;15.40;6.55;;;;;;;20.30;60.34;100097.70;1703437;84;21129;-63
2023/10/14 10:55:48;;;;;;;13.83;6.25;;;;;;;20.32;59.83;100084.36;1703773;84;21036;-63
2023/10/14 10:58:18;;;;;;;11.05;6.55;;;;;;;20.34;59.49;100086.32;1703421;84;21032;-62
2023/10/14 11:00:48;;;;;;;12.13;6.20;;;;;;;20.37;59.27;100082.99;1703383;83;21059;-64
2023/10/14 11:03:17;;;;;;;8.73;6.08;;;;;;;20.38;59.32;100086.06;1703645;84;21047;-63
2023/10/14 11:05:47;;;;;;;12.40;6.45;;;;;;;20.38;59.26;100069.92;1703114;84;21032;-65
2023/10/14 11:08:16;;;;;;;9.63;5.97;;;;;;;20.37;59.57;100074.65;1703517;84;21099;-62
2023/10/14 11:10:46;;;;;;;10.20;5.80;;;;;;;20.42;58.92;100074.70;1703401;84;21573;-64
2023/10/14 11:13:18;;;;;;;11.12;6.20;;;;;;;20.43;58.49;100062.47;1703527;84;21084;-63
2023/10/14 11:15:50;;;;;;;9.63;5.72;;;;;;;20.44;58.49;100068.31;1703480;84;21099;-63
2023/10/14 11:18:19;;;;;;;11.30;5.50;;;;;;;20.45;58.43;100068.59;1703788;84;21071;-64
2023/10/14 11:20:49;;;;;;;11.93;5.90;;;;;;;20.44;58.37;100051.62;1700862;84;21568;-65
2023/10/14 11:23:18;;;;;;;12.13;5.55;;;;;;;20.46;58.40;100057.75;1703443;84;21172;-64
2023/10/14 11:25:49;;;;;;;12.85;5.92;;;;;;;20.46;58.14;100056.36;1705961;82;21580;-65
2023/10/14 11:28:18;;;;;;;10.25;5.78;;;;;;;20.47;58.12;100052.46;1708404;84;21475;-63
2023/10/14 11:30:47;;;;;;;14.23;5.95;;;;;;;20.48;58.07;100054.14;1708095;84;21039;-65
2023/10/14 11:33:19;;;;;;;13.93;5.53;;;;;;;20.47;58.07;100044.11;1707991;84;21051;-64
2023/10/14 11:35:53;;;;;;;12.88;5.95;;;;;;;20.49;58.18;100044.68;1707835;84;21090;-64
2023/10/14 11:38:19;;;;;;;12.47;5.53;;;;;;;20.51;58.19;100045.24;1695204;84;21517;-64
2023/10/14 11:40:51;;;;;;;12.95;5.67;;;;;;;20.54;58.00;100050.27;1691593;84;21080;-66
2023/10/14 11:43:21;;;;;;;12.28;5.92;;;;;;;20.60;57.93;100042.77;1691466;84;21485;-64
2023/10/14 11:45:54;;;;;;;9.88;5.53;;;;;;;20.66;57.83;100039.45;1691366;85;21096;-64
2023/10/14 11:48:28;;;;;;;14.70;6.03;;;;;;;20.67;57.68;100028.05;1691595;85;21079;-65
2023/10/14 11:51:02;;;;;;;12.03;5.53;;;;;;;20.71;57.45;100025.55;1691371;85;21040;-63
2023/10/14 11:53:32;;;;;;;16.23;6.05;;;;;;;20.70;57.43;100016.36;1691658;84;21052;-63
2023/10/14 11:56:03;;;;;;;11.22;5.12;;;;;;;20.74;57.43;100015.26;1691432;85;21489;-64
2023/10/14 11:58:40;;;;;;;12.07;5.05;;;;;;;20.74;57.55;100011.91;1691715;84;21099;-63
2023/10/14 12:01:05;;;;;;;11.93;5.70;;;;;;;20.73;57.43;100007.46;1691115;84;21053;-64
2023/10/14 12:03:34;;;;;;;9.53;5.15;;;;;;;20.73;57.29;100008.02;1691692;84;21028;-63
2023/10/14 12:06:03;;;;;;;11.40;5.05;;;;;;;20.72;57.25;100004.95;1691558;85;21524;-65
2023/10/14 12:08:40;;;;;;;13.50;5.40;;;;;;;20.73;57.18;100004.67;1671973;85;21040;-64
2023/10/14 12:11:08;;;;;;;10.00;4.83;;;;;;;20.74;57.03;99999.94;1691418;84;20992;-64
2023/10/14 12:13:37;;;;;;;12.15;5.53;;;;;;;20.75;57.08;99996.88;1691521;85;21148;-68
2023/10/14 12:16:08;;;;;;;8.25;5.10;;;;;;;20.78;56.87;99992.16;1689733;84;21472;-64
2023/10/14 12:18:37;;;;;;;11.25;5.47;;;;;;;20.82;56.51;99996.09;1691485;84;20989;-65
2023/10/14 12:21:06;;;;;;;9.23;5.17;;;;;;;20.86;56.44;99987.47;1691529;85;21060;-64
2023/10/14 12:23:35;;;;;;;8.43;5.00;;;;;;;20.86;56.66;99977.72;1691626;84;21005;-65
2023/10/14 12:26:05;;;;;;;11.43;5.10;;;;;;;20.92;56.56;99978.56;1696011;84;21487;-64
2023/10/14 12:28:35;;;;;;;10.90;5.60;;;;;;;20.96;56.32;99970.50;1705813;83;21023;-65
2023/10/14 12:31:06;;;;;;;9.43;5.00;;;;;;;21.00;56.24;99964.09;1705831;84;21549;-64
2023/10/14 12:33:35;;;;;;;10.58;5.10;;;;;;;21.04;56.07;99969.39;1705978;84;21035;-64
2023/10/14 12:36:11;;;;;;;9.20;5.17;;;;;;;21.07;55.98;99963.82;1705678;84;21052;-66